sensor_id;sensor_type;location;lat;lon;timestamp;P1;durP1;ratioP1;P2;durP2;ratioP2
72813;SDS011;60945;48.516;-2.768;2023-03-12T00:01:26;26.17;;;9.02;;
72813;SDS011;60945;48.516;-2.768;2023-03-12T00:03:54;26.98;;;8.93;;
72813;SDS011;60945;48.516;-2.768;2023-03-12T00:06:20;24.48;;;8.57;;
72813;SDS011;60945;48.516;-2.768;2023-03-12T00:08:47;21.08;;;8.07;;
72813;SDS011;60945;48.516;-2.768;2023-03-12T00:11:14;20.83;;;10.00;;
72813;SDS011;60945;48.516;-2.768;2023-03-12T00:13:42;26.13;;;8.68;;
72813;SDS011;60945;48.516;-2.768;2023-03-12T00:16:09;20.65;;;7.63;;
72813;SDS011;60945;48.516;-2.768;2023-03-12T00:18:37;20.20;;;8.65;;
72813;SDS011;60945;48.516;-2.768;2023-03-12T00:21:03;27.27;;;9.25;;
72813;SDS011;60945;48.516;-2.768;2023-03-12T00:23:30;22.58;;;9.20;;
72813;SDS011;60945;48.516;-2.768;2023-03-12T00:26:03;21.25;;;9.77;;
72813;SDS011;60945;48.516;-2.768;2023-03-12T00:28:34;22.63;;;9.27;;
72813;SDS011;60945;48.516;-2.768;2023-03-12T00:31:00;22.98;;;8.20;;
72813;SDS011;60945;48.516;-2.768;2023-03-12T00:33:27;24.63;;;9.00;;
72813;SDS011;60945;48.516;-2.768;2023-03-12T00:35:58;27.60;;;10.10;;
72813;SDS011;60945;48.516;-2.768;2023-03-12T00:38:24;25.58;;;8.80;;
72813;SDS011;60945;48.516;-2.768;2023-03-12T00:40:49;24.92;;;9.45;;
72813;SDS011;60945;48.516;-2.768;2023-03-12T00:43:15;26.77;;;9.32;;
72813;SDS011;60945;48.516;-2.768;2023-03-12T00:45:41;22.55;;;8.95;;
72813;SDS011;60945;48.516;-2.768;2023-03-12T00:48:06;18.75;;;8.85;;
72813;SDS011;60945;48.516;-2.768;2023-03-12T00:50:32;19.00;;;9.15;;
72813;SDS011;60945;48.516;-2.768;2023-03-12T00:52:57;18.15;;;8.40;;
72813;SDS011;60945;48.516;-2.768;2023-03-12T00:55:23;19.55;;;8.55;;
72813;SDS011;60945;48.516;-2.768;2023-03-12T00:57:49;30.60;;;9.40;;
72813;SDS011;60945;48.516;-2.768;2023-03-12T01:00:14;27.40;;;8.60;;
72813;SDS011;60945;48.516;-2.768;2023-03-12T01:02:40;24.55;;;9.65;;
72813;SDS011;60945;48.516;-2.768;2023-03-12T01:05:07;21.95;;;9.00;;
72813;SDS011;60945;48.516;-2.768;2023-03-12T01:07:34;20.30;;;9.40;;
72813;SDS011;60945;48.516;-2.768;2023-03-12T01:10:00;24.13;;;9.35;;
72813;SDS011;60945;48.516;-2.768;2023-03-12T01:12:26;21.13;;;8.70;;
72813;SDS011;60945;48.516;-2.768;2023-03-12T01:14:52;23.42;;;9.38;;
72813;SDS011;60945;48.516;-2.768;2023-03-12T01:17:17;19.50;;;8.75;;
72813;SDS011;60945;48.516;-2.768;2023-03-12T01:19:43;22.95;;;9.57;;
72813;SDS011;60945;48.516;-2.768;2023-03-12T01:22:09;25.35;;;8.95;;
72813;SDS011;60945;48.516;-2.768;2023-03-12T01:24:34;22.75;;;8.60;;
72813;SDS011;60945;48.516;-2.768;2023-03-12T01:27:00;23.35;;;9.07;;
72813;SDS011;60945;48.516;-2.768;2023-03-12T01:29:26;23.83;;;8.45;;
72813;SDS011;60945;48.516;-2.768;2023-03-12T01:31:51;18.15;;;8.45;;
72813;SDS011;60945;48.516;-2.768;2023-03-12T01:34:17;20.83;;;8.70;;
72813;SDS011;60945;48.516;-2.768;2023-03-12T01:36:43;19.85;;;8.32;;
72813;SDS011;60945;48.516;-2.768;2023-03-12T01:39:10;20.42;;;8.35;;
72813;SDS011;60945;48.516;-2.768;2023-03-12T01:41:36;16.40;;;8.52;;
72813;SDS011;60945;48.516;-2.768;2023-03-12T01:44:02;21.67;;;9.27;;
72813;SDS011;60945;48.516;-2.768;2023-03-12T01:46:33;15.32;;;7.95;;
72813;SDS011;60945;48.516;-2.768;2023-03-12T01:52:12;20.35;;;8.85;;
72813;SDS011;60945;48.516;-2.768;2023-03-12T01:54:44;18.45;;;8.35;;
72813;SDS011;60945;48.516;-2.768;2023-03-12T01:57:16;21.17;;;8.60;;
72813;SDS011;60945;48.516;-2.768;2023-03-12T01:59:46;20.98;;;7.78;;
72813;SDS011;60945;48.516;-2.768;2023-03-12T02:02:15;20.77;;;8.55;;
72813;SDS011;60945;48.516;-2.768;2023-03-12T02:04:44;16.38;;;7.57;;
72813;SDS011;60945;48.516;-2.768;2023-03-12T02:07:15;17.15;;;7.47;;
72813;SDS011;60945;48.516;-2.768;2023-03-12T02:09:43;18.45;;;9.20;;
72813;SDS011;60945;48.516;-2.768;2023-03-12T02:12:11;23.17;;;8.80;;
72813;SDS011;60945;48.516;-2.768;2023-03-12T02:14:37;24.48;;;8.48;;
72813;SDS011;60945;48.516;-2.768;2023-03-12T02:17:07;18.38;;;8.55;;
72813;SDS011;60945;48.516;-2.768;2023-03-12T02:22:23;16.70;;;7.60;;
72813;SDS011;60945;48.516;-2.768;2023-03-12T02:24:55;24.25;;;7.82;;
72813;SDS011;60945;48.516;-2.768;2023-03-12T02:27:28;17.75;;;8.48;;
72813;SDS011;60945;48.516;-2.768;2023-03-12T02:29:56;19.73;;;8.02;;
72813;SDS011;60945;48.516;-2.768;2023-03-12T02:32:23;16.58;;;8.20;;
72813;SDS011;60945;48.516;-2.768;2023-03-12T02:34:52;24.45;;;8.52;;
72813;SDS011;60945;48.516;-2.768;2023-03-12T02:37:18;21.05;;;8.35;;
72813;SDS011;60945;48.516;-2.768;2023-03-12T02:39:45;20.75;;;7.75;;
72813;SDS011;60945;48.516;-2.768;2023-03-12T02:42:34;24.15;;;7.55;;
72813;SDS011;60945;48.516;-2.768;2023-03-12T02:45:00;23.02;;;8.02;;
72813;SDS011;60945;48.516;-2.768;2023-03-12T02:47:27;21.83;;;7.85;;
72813;SDS011;60945;48.516;-2.768;2023-03-12T02:49:52;20.95;;;8.07;;
72813;SDS011;60945;48.516;-2.768;2023-03-12T02:52:18;23.15;;;8.07;;
72813;SDS011;60945;48.516;-2.768;2023-03-12T02:54:43;18.10;;;8.07;;
72813;SDS011;60945;48.516;-2.768;2023-03-12T02:57:09;23.75;;;7.55;;
72813;SDS011;60945;48.516;-2.768;2023-03-12T02:59:35;18.70;;;7.85;;
72813;SDS011;60945;48.516;-2.768;2023-03-12T03:02:00;15.55;;;7.75;;
72813;SDS011;60945;48.516;-2.768;2023-03-12T03:04:27;19.25;;;7.07;;
72813;SDS011;60945;48.516;-2.768;2023-03-12T03:06:54;18.27;;;7.75;;
72813;SDS011;60945;48.516;-2.768;2023-03-12T03:09:20;18.20;;;7.82;;
72813;SDS011;60945;48.516;-2.768;2023-03-12T03:11:46;13.45;;;7.20;;
72813;SDS011;60945;48.516;-2.768;2023-03-12T03:14:13;22.88;;;6.93;;
72813;SDS011;60945;48.516;-2.768;2023-03-12T03:16:39;19.23;;;9.15;;
72813;SDS011;60945;48.516;-2.768;2023-03-12T03:19:04;22.58;;;7.40;;
72813;SDS011;60945;48.516;-2.768;2023-03-12T03:21:30;19.98;;;7.65;;
72813;SDS011;60945;48.516;-2.768;2023-03-12T03:23:56;15.35;;;7.35;;
72813;SDS011;60945;48.516;-2.768;2023-03-12T03:26:22;24.45;;;7.55;;
72813;SDS011;60945;48.516;-2.768;2023-03-12T03:28:49;19.30;;;7.78;;
72813;SDS011;60945;48.516;-2.768;2023-03-12T03:31:15;18.13;;;7.25;;
72813;SDS011;60945;48.516;-2.768;2023-03-12T03:33:41;19.55;;;6.95;;
72813;SDS011;60945;48.516;-2.768;2023-03-12T03:36:07;20.55;;;6.53;;
72813;SDS011;60945;48.516;-2.768;2023-03-12T03:38:34;16.88;;;7.07;;
72813;SDS011;60945;48.516;-2.768;2023-03-12T03:41:00;22.83;;;7.35;;
72813;SDS011;60945;48.516;-2.768;2023-03-12T03:43:26;15.90;;;7.57;;
72813;SDS011;60945;48.516;-2.768;2023-03-12T03:45:58;20.63;;;7.78;;
72813;SDS011;60945;48.516;-2.768;2023-03-12T03:48:25;20.42;;;6.90;;
72813;SDS011;60945;48.516;-2.768;2023-03-12T03:50:51;20.65;;;7.47;;
72813;SDS011;60945;48.516;-2.768;2023-03-12T03:53:18;19.40;;;7.25;;
72813;SDS011;60945;48.516;-2.768;2023-03-12T03:55:44;17.55;;;7.53;;
72813;SDS011;60945;48.516;-2.768;2023-03-12T03:58:11;23.95;;;8.18;;
72813;SDS011;60945;48.516;-2.768;2023-03-12T04:00:37;19.92;;;6.78;;
72813;SDS011;60945;48.516;-2.768;2023-03-12T04:03:02;18.27;;;7.07;;
72813;SDS011;60945;48.516;-2.768;2023-03-12T04:05:28;16.77;;;6.53;;
72813;SDS011;60945;48.516;-2.768;2023-03-12T04:07:54;19.23;;;7.30;;
72813;SDS011;60945;48.516;-2.768;2023-03-12T04:10:21;16.90;;;6.95;;
72813;SDS011;60945;48.516;-2.768;2023-03-12T04:12:48;18.10;;;7.00;;
72813;SDS011;60945;48.516;-2.768;2023-03-12T04:15:14;18.95;;;6.65;;
72813;SDS011;60945;48.516;-2.768;2023-03-12T04:17:40;20.73;;;6.25;;
72813;SDS011;60945;48.516;-2.768;2023-03-12T04:20:05;24.27;;;9.20;;
72813;SDS011;60945;48.516;-2.768;2023-03-12T04:22:33;20.00;;;6.93;;
72813;SDS011;60945;48.516;-2.768;2023-03-12T04:24:59;18.92;;;7.80;;
72813;SDS011;60945;48.516;-2.768;2023-03-12T04:27:25;16.70;;;6.78;;
72813;SDS011;60945;48.516;-2.768;2023-03-12T04:29:51;15.18;;;7.40;;
72813;SDS011;60945;48.516;-2.768;2023-03-12T04:32:16;19.13;;;7.38;;
72813;SDS011;60945;48.516;-2.768;2023-03-12T04:34:42;18.50;;;6.80;;
72813;SDS011;60945;48.516;-2.768;2023-03-12T04:37:08;12.25;;;6.00;;
72813;SDS011;60945;48.516;-2.768;2023-03-12T04:39:40;20.17;;;6.78;;
72813;SDS011;60945;48.516;-2.768;2023-03-12T04:42:07;22.02;;;8.57;;
72813;SDS011;60945;48.516;-2.768;2023-03-12T04:44:33;24.73;;;7.55;;
72813;SDS011;60945;48.516;-2.768;2023-03-12T04:47:00;16.13;;;6.30;;
72813;SDS011;60945;48.516;-2.768;2023-03-12T04:49:26;16.45;;;7.60;;
72813;SDS011;60945;48.516;-2.768;2023-03-12T04:51:52;14.85;;;7.07;;
72813;SDS011;60945;48.516;-2.768;2023-03-12T04:54:18;19.98;;;8.02;;
72813;SDS011;60945;48.516;-2.768;2023-03-12T04:56:45;18.98;;;8.20;;
72813;SDS011;60945;48.516;-2.768;2023-03-12T04:59:11;15.65;;;7.05;;
72813;SDS011;60945;48.516;-2.768;2023-03-12T05:01:38;23.02;;;7.93;;
72813;SDS011;60945;48.516;-2.768;2023-03-12T05:04:03;17.95;;;9.15;;
72813;SDS011;60945;48.516;-2.768;2023-03-12T05:06:29;22.85;;;8.27;;
72813;SDS011;60945;48.516;-2.768;2023-03-12T05:08:56;20.58;;;8.00;;
72813;SDS011;60945;48.516;-2.768;2023-03-12T05:11:22;22.33;;;8.23;;
72813;SDS011;60945;48.516;-2.768;2023-03-12T05:13:48;20.95;;;8.98;;
72813;SDS011;60945;48.516;-2.768;2023-03-12T05:16:14;23.23;;;8.27;;
72813;SDS011;60945;48.516;-2.768;2023-03-12T05:18:40;27.05;;;8.57;;
72813;SDS011;60945;48.516;-2.768;2023-03-12T05:21:11;21.60;;;8.30;;
72813;SDS011;60945;48.516;-2.768;2023-03-12T05:23:39;18.33;;;8.90;;
72813;SDS011;60945;48.516;-2.768;2023-03-12T05:26:06;20.05;;;8.23;;
72813;SDS011;60945;48.516;-2.768;2023-03-12T05:28:49;20.75;;;8.02;;
72813;SDS011;60945;48.516;-2.768;2023-03-12T05:31:15;25.25;;;8.93;;
72813;SDS011;60945;48.516;-2.768;2023-03-12T05:33:42;21.48;;;8.57;;
72813;SDS011;60945;48.516;-2.768;2023-03-12T05:36:08;22.02;;;8.70;;
72813;SDS011;60945;48.516;-2.768;2023-03-12T05:38:35;19.27;;;7.63;;
72813;SDS011;60945;48.516;-2.768;2023-03-12T05:41:01;26.70;;;9.55;;
72813;SDS011;60945;48.516;-2.768;2023-03-12T05:43:27;16.50;;;7.85;;
72813;SDS011;60945;48.516;-2.768;2023-03-12T05:45:56;18.08;;;8.00;;
72813;SDS011;60945;48.516;-2.768;2023-03-12T05:48:23;23.10;;;8.82;;
72813;SDS011;60945;48.516;-2.768;2023-03-12T05:50:49;31.67;;;10.38;;
72813;SDS011;60945;48.516;-2.768;2023-03-12T05:53:15;16.38;;;9.25;;
72813;SDS011;60945;48.516;-2.768;2023-03-12T05:55:40;22.77;;;8.88;;
72813;SDS011;60945;48.516;-2.768;2023-03-12T05:58:06;15.45;;;8.20;;
72813;SDS011;60945;48.516;-2.768;2023-03-12T06:00:33;22.05;;;8.43;;
72813;SDS011;60945;48.516;-2.768;2023-03-12T06:03:03;22.17;;;10.07;;
72813;SDS011;60945;48.516;-2.768;2023-03-12T06:05:30;23.02;;;9.60;;
72813;SDS011;60945;48.516;-2.768;2023-03-12T06:07:56;20.40;;;9.15;;
72813;SDS011;60945;48.516;-2.768;2023-03-12T06:10:22;17.13;;;8.50;;
72813;SDS011;60945;48.516;-2.768;2023-03-12T06:12:48;17.33;;;9.35;;
72813;SDS011;60945;48.516;-2.768;2023-03-12T06:15:13;16.38;;;8.77;;
72813;SDS011;60945;48.516;-2.768;2023-03-12T06:17:39;21.40;;;8.73;;
72813;SDS011;60945;48.516;-2.768;2023-03-12T06:20:05;23.08;;;8.82;;
72813;SDS011;60945;48.516;-2.768;2023-03-12T06:22:31;24.58;;;9.65;;
72813;SDS011;60945;48.516;-2.768;2023-03-12T06:24:57;19.17;;;8.75;;
72813;SDS011;60945;48.516;-2.768;2023-03-12T06:27:23;21.33;;;8.55;;
72813;SDS011;60945;48.516;-2.768;2023-03-12T06:29:57;16.60;;;7.88;;
72813;SDS011;60945;48.516;-2.768;2023-03-12T06:32:23;21.92;;;9.20;;
72813;SDS011;60945;48.516;-2.768;2023-03-12T06:34:50;25.27;;;9.10;;
72813;SDS011;60945;48.516;-2.768;2023-03-12T06:37:15;25.52;;;9.70;;
72813;SDS011;60945;48.516;-2.768;2023-03-12T06:39:41;19.00;;;8.20;;
72813;SDS011;60945;48.516;-2.768;2023-03-12T06:42:07;20.33;;;8.35;;
72813;SDS011;60945;48.516;-2.768;2023-03-12T06:44:32;25.48;;;7.97;;
72813;SDS011;60945;48.516;-2.768;2023-03-12T06:46:58;20.27;;;7.80;;
72813;SDS011;60945;48.516;-2.768;2023-03-12T06:49:24;18.30;;;8.32;;
72813;SDS011;60945;48.516;-2.768;2023-03-12T06:51:50;20.02;;;8.90;;
72813;SDS011;60945;48.516;-2.768;2023-03-12T06:54:16;18.77;;;8.25;;
72813;SDS011;60945;48.516;-2.768;2023-03-12T06:56:41;18.25;;;8.40;;
72813;SDS011;60945;48.516;-2.768;2023-03-12T06:59:07;25.15;;;9.80;;
72813;SDS011;60945;48.516;-2.768;2023-03-12T07:01:33;25.05;;;9.38;;
72813;SDS011;60945;48.516;-2.768;2023-03-12T07:03:59;31.15;;;8.57;;
72813;SDS011;60945;48.516;-2.768;2023-03-12T07:06:24;16.63;;;8.00;;
72813;SDS011;60945;48.516;-2.768;2023-03-12T07:08:50;21.92;;;8.38;;
72813;SDS011;60945;48.516;-2.768;2023-03-12T07:11:16;26.13;;;8.15;;
72813;SDS011;60945;48.516;-2.768;2023-03-12T07:13:42;20.52;;;8.27;;
72813;SDS011;60945;48.516;-2.768;2023-03-12T07:16:08;20.30;;;8.00;;
72813;SDS011;60945;48.516;-2.768;2023-03-12T07:18:35;26.35;;;8.02;;
72813;SDS011;60945;48.516;-2.768;2023-03-12T07:21:01;20.42;;;8.05;;
72813;SDS011;60945;48.516;-2.768;2023-03-12T07:23:27;20.13;;;8.25;;
72813;SDS011;60945;48.516;-2.768;2023-03-12T07:25:52;17.33;;;8.82;;
72813;SDS011;60945;48.516;-2.768;2023-03-12T07:28:18;19.70;;;8.75;;
72813;SDS011;60945;48.516;-2.768;2023-03-12T07:30:45;20.52;;;8.40;;
72813;SDS011;60945;48.516;-2.768;2023-03-12T07:33:18;20.75;;;8.05;;
72813;SDS011;60945;48.516;-2.768;2023-03-12T07:35:45;16.42;;;8.80;;
72813;SDS011;60945;48.516;-2.768;2023-03-12T07:38:11;26.17;;;7.85;;
72813;SDS011;60945;48.516;-2.768;2023-03-12T07:40:37;19.75;;;7.95;;
72813;SDS011;60945;48.516;-2.768;2023-03-12T07:43:03;18.55;;;8.45;;
72813;SDS011;60945;48.516;-2.768;2023-03-12T07:45:35;18.15;;;8.13;;
72813;SDS011;60945;48.516;-2.768;2023-03-12T07:48:03;15.35;;;7.22;;
72813;SDS011;60945;48.516;-2.768;2023-03-12T07:50:30;16.52;;;8.18;;
72813;SDS011;60945;48.516;-2.768;2023-03-12T07:52:56;21.00;;;8.13;;
72813;SDS011;60945;48.516;-2.768;2023-03-12T07:55:22;16.85;;;7.40;;
72813;SDS011;60945;48.516;-2.768;2023-03-12T07:57:48;16.02;;;8.10;;
72813;SDS011;60945;48.516;-2.768;2023-03-12T08:00:16;19.85;;;7.78;;
72813;SDS011;60945;48.516;-2.768;2023-03-12T08:02:42;23.95;;;7.85;;
72813;SDS011;60945;48.516;-2.768;2023-03-12T08:05:08;19.85;;;8.07;;
72813;SDS011;60945;48.516;-2.768;2023-03-12T08:07:34;17.20;;;8.27;;
72813;SDS011;60945;48.516;-2.768;2023-03-12T08:10:03;14.82;;;7.80;;
72813;SDS011;60945;48.516;-2.768;2023-03-12T08:12:31;16.85;;;8.68;;
72813;SDS011;60945;48.516;-2.768;2023-03-12T08:14:57;22.30;;;8.98;;
72813;SDS011;60945;48.516;-2.768;2023-03-12T08:17:23;19.08;;;8.02;;
72813;SDS011;60945;48.516;-2.768;2023-03-12T08:19:49;19.40;;;7.72;;
72813;SDS011;60945;48.516;-2.768;2023-03-12T08:22:14;16.27;;;8.20;;
72813;SDS011;60945;48.516;-2.768;2023-03-12T08:24:40;19.05;;;8.00;;
72813;SDS011;60945;48.516;-2.768;2023-03-12T08:27:05;14.25;;;8.32;;
72813;SDS011;60945;48.516;-2.768;2023-03-12T08:29:31;13.25;;;7.60;;
72813;SDS011;60945;48.516;-2.768;2023-03-12T08:31:57;16.23;;;7.60;;
72813;SDS011;60945;48.516;-2.768;2023-03-12T08:34:23;14.50;;;7.55;;
72813;SDS011;60945;48.516;-2.768;2023-03-12T08:36:49;16.90;;;7.60;;
72813;SDS011;60945;48.516;-2.768;2023-03-12T08:39:14;15.10;;;7.50;;
72813;SDS011;60945;48.516;-2.768;2023-03-12T08:41:40;16.58;;;8.00;;
72813;SDS011;60945;48.516;-2.768;2023-03-12T08:44:06;19.00;;;8.07;;
72813;SDS011;60945;48.516;-2.768;2023-03-12T08:46:31;14.38;;;7.15;;
72813;SDS011;60945;48.516;-2.768;2023-03-12T08:48:59;12.93;;;6.82;;
72813;SDS011;60945;48.516;-2.768;2023-03-12T08:51:25;18.33;;;7.70;;
72813;SDS011;60945;48.516;-2.768;2023-03-12T08:53:51;14.68;;;7.03;;
72813;SDS011;60945;48.516;-2.768;2023-03-12T08:56:16;16.67;;;7.30;;
72813;SDS011;60945;48.516;-2.768;2023-03-12T08:58:42;21.65;;;7.38;;
72813;SDS011;60945;48.516;-2.768;2023-03-12T09:01:08;13.85;;;7.10;;
72813;SDS011;60945;48.516;-2.768;2023-03-12T09:03:35;14.05;;;7.40;;
72813;SDS011;60945;48.516;-2.768;2023-03-12T09:06:05;14.43;;;7.20;;
72813;SDS011;60945;48.516;-2.768;2023-03-12T09:08:37;19.30;;;7.50;;
72813;SDS011;60945;48.516;-2.768;2023-03-12T09:11:03;15.45;;;6.95;;
72813;SDS011;60945;48.516;-2.768;2023-03-12T09:13:29;16.80;;;7.28;;
72813;SDS011;60945;48.516;-2.768;2023-03-12T09:15:59;18.13;;;7.72;;
72813;SDS011;60945;48.516;-2.768;2023-03-12T09:18:26;15.20;;;7.28;;
72813;SDS011;60945;48.516;-2.768;2023-03-12T09:20:52;17.23;;;6.57;;
72813;SDS011;60945;48.516;-2.768;2023-03-12T09:23:17;16.05;;;6.80;;
72813;SDS011;60945;48.516;-2.768;2023-03-12T09:25:46;12.45;;;6.63;;
72813;SDS011;60945;48.516;-2.768;2023-03-12T09:28:12;14.25;;;6.95;;
72813;SDS011;60945;48.516;-2.768;2023-03-12T09:30:38;13.05;;;7.03;;
72813;SDS011;60945;48.516;-2.768;2023-03-12T09:33:04;16.90;;;7.20;;
72813;SDS011;60945;48.516;-2.768;2023-03-12T09:35:30;14.77;;;6.43;;
72813;SDS011;60945;48.516;-2.768;2023-03-12T09:37:56;14.85;;;6.18;;
72813;SDS011;60945;48.516;-2.768;2023-03-12T09:40:23;19.98;;;7.15;;
72813;SDS011;60945;48.516;-2.768;2023-03-12T09:43:01;15.25;;;6.75;;
72813;SDS011;60945;48.516;-2.768;2023-03-12T09:45:47;15.23;;;7.20;;
72813;SDS011;60945;48.516;-2.768;2023-03-12T09:48:14;13.43;;;6.85;;
72813;SDS011;60945;48.516;-2.768;2023-03-12T09:50:47;14.27;;;6.55;;
72813;SDS011;60945;48.516;-2.768;2023-03-12T09:56:00;19.67;;;7.03;;
72813;SDS011;60945;48.516;-2.768;2023-03-12T09:58:34;17.38;;;7.57;;
72813;SDS011;60945;48.516;-2.768;2023-03-12T10:01:16;16.15;;;6.93;;
72813;SDS011;60945;48.516;-2.768;2023-03-12T10:09:21;14.27;;;6.40;;
72813;SDS011;60945;48.516;-2.768;2023-03-12T10:22:57;14.30;;;6.88;;
72813;SDS011;60945;48.516;-2.768;2023-03-12T10:25:41;15.77;;;6.47;;
72813;SDS011;60945;48.516;-2.768;2023-03-12T10:30:54;17.77;;;7.38;;
72813;SDS011;60945;48.516;-2.768;2023-03-12T10:33:24;19.35;;;8.07;;
72813;SDS011;60945;48.516;-2.768;2023-03-12T10:36:08;17.38;;;7.65;;
72813;SDS011;60945;48.516;-2.768;2023-03-12T10:38:53;12.80;;;6.75;;
72813;SDS011;60945;48.516;-2.768;2023-03-12T10:41:21;15.65;;;6.45;;
72813;SDS011;60945;48.516;-2.768;2023-03-12T10:43:53;17.30;;;7.00;;
72813;SDS011;60945;48.516;-2.768;2023-03-12T10:46:37;16.20;;;7.38;;
72813;SDS011;60945;48.516;-2.768;2023-03-12T10:51:54;14.55;;;7.00;;
72813;SDS011;60945;48.516;-2.768;2023-03-12T10:54:39;16.17;;;7.47;;
72813;SDS011;60945;48.516;-2.768;2023-03-12T10:57:05;18.15;;;7.18;;
72813;SDS011;60945;48.516;-2.768;2023-03-12T10:59:38;16.38;;;7.00;;
72813;SDS011;60945;48.516;-2.768;2023-03-12T11:04:59;16.33;;;6.63;;
72813;SDS011;60945;48.516;-2.768;2023-03-12T11:07:30;14.70;;;7.28;;
72813;SDS011;60945;48.516;-2.768;2023-03-12T11:10:11;17.33;;;6.68;;
72813;SDS011;60945;48.516;-2.768;2023-03-12T11:12:39;16.15;;;7.53;;
72813;SDS011;60945;48.516;-2.768;2023-03-12T11:20:50;14.23;;;6.75;;
72813;SDS011;60945;48.516;-2.768;2023-03-12T11:23:22;20.33;;;8.25;;
72813;SDS011;60945;48.516;-2.768;2023-03-12T11:26:13;18.30;;;7.28;;
72813;SDS011;60945;48.516;-2.768;2023-03-12T11:28:40;20.77;;;6.93;;
72813;SDS011;60945;48.516;-2.768;2023-03-12T11:31:10;13.75;;;6.68;;
72813;SDS011;60945;48.516;-2.768;2023-03-12T11:33:56;16.13;;;6.95;;
72813;SDS011;60945;48.516;-2.768;2023-03-12T11:36:30;12.25;;;6.90;;
72813;SDS011;60945;48.516;-2.768;2023-03-12T11:39:19;13.98;;;7.28;;
72813;SDS011;60945;48.516;-2.768;2023-03-12T11:44:54;13.40;;;6.47;;
72813;SDS011;60945;48.516;-2.768;2023-03-12T11:50:41;10.55;;;6.18;;
72813;SDS011;60945;48.516;-2.768;2023-03-12T11:56:11;15.95;;;6.05;;
72813;SDS011;60945;48.516;-2.768;2023-03-12T12:10:23;9.85;;;5.38;;
72813;SDS011;60945;48.516;-2.768;2023-03-12T12:15:27;9.80;;;5.35;;
72813;SDS011;60945;48.516;-2.768;2023-03-12T12:23:56;10.85;;;5.20;;
72813;SDS011;60945;48.516;-2.768;2023-03-12T12:26:37;12.57;;;5.43;;
72813;SDS011;60945;48.516;-2.768;2023-03-12T12:31:46;12.55;;;5.72;;
72813;SDS011;60945;48.516;-2.768;2023-03-12T12:37:43;11.27;;;5.28;;
72813;SDS011;60945;48.516;-2.768;2023-03-12T12:39:44;13.75;;;5.40;;
72813;SDS011;60945;48.516;-2.768;2023-03-12T12:42:18;11.20;;;5.30;;
72813;SDS011;60945;48.516;-2.768;2023-03-12T12:44:50;12.63;;;6.27;;
72813;SDS011;60945;48.516;-2.768;2023-03-12T12:47:18;13.02;;;6.35;;
72813;SDS011;60945;48.516;-2.768;2023-03-12T12:49:55;13.07;;;5.63;;
72813;SDS011;60945;48.516;-2.768;2023-03-12T12:52:22;12.32;;;6.40;;
72813;SDS011;60945;48.516;-2.768;2023-03-12T12:57:44;15.57;;;5.93;;
72813;SDS011;60945;48.516;-2.768;2023-03-12T13:00:20;9.32;;;5.47;;
72813;SDS011;60945;48.516;-2.768;2023-03-12T13:02:47;13.93;;;5.95;;
72813;SDS011;60945;48.516;-2.768;2023-03-12T13:08:02;13.68;;;5.28;;
72813;SDS011;60945;48.516;-2.768;2023-03-12T13:12:58;11.60;;;5.50;;
72813;SDS011;60945;48.516;-2.768;2023-03-12T13:20:20;15.68;;;6.22;;
72813;SDS011;60945;48.516;-2.768;2023-03-12T13:30:53;8.07;;;4.38;;
72813;SDS011;60945;48.516;-2.768;2023-03-12T13:33:20;13.88;;;4.57;;
72813;SDS011;60945;48.516;-2.768;2023-03-12T13:38:52;9.50;;;4.78;;
72813;SDS011;60945;48.516;-2.768;2023-03-12T13:52:20;9.05;;;4.68;;
72813;SDS011;60945;48.516;-2.768;2023-03-12T13:54:56;7.03;;;4.00;;
72813;SDS011;60945;48.516;-2.768;2023-03-12T13:57:38;6.90;;;4.30;;
72813;SDS011;60945;48.516;-2.768;2023-03-12T14:00:15;7.25;;;4.30;;
72813;SDS011;60945;48.516;-2.768;2023-03-12T14:02:47;6.45;;;4.22;;
72813;SDS011;60945;48.516;-2.768;2023-03-12T14:05:16;8.93;;;4.90;;
72813;SDS011;60945;48.516;-2.768;2023-03-12T14:10:32;5.63;;;4.88;;
72813;SDS011;60945;48.516;-2.768;2023-03-12T14:21:15;5.05;;;4.55;;
72813;SDS011;60945;48.516;-2.768;2023-03-12T14:23:51;6.25;;;4.30;;
72813;SDS011;60945;48.516;-2.768;2023-03-12T14:26:22;4.85;;;4.32;;
72813;SDS011;60945;48.516;-2.768;2023-03-12T14:29:27;5.25;;;4.90;;
72813;SDS011;60945;48.516;-2.768;2023-03-12T14:32:05;5.13;;;4.72;;
72813;SDS011;60945;48.516;-2.768;2023-03-12T14:34:40;5.25;;;4.85;;
72813;SDS011;60945;48.516;-2.768;2023-03-12T14:37:12;5.50;;;5.00;;
72813;SDS011;60945;48.516;-2.768;2023-03-12T14:42:46;5.50;;;5.00;;
72813;SDS011;60945;48.516;-2.768;2023-03-12T14:47:37;5.95;;;4.80;;
72813;SDS011;60945;48.516;-2.768;2023-03-12T14:50:21;5.03;;;4.63;;
72813;SDS011;60945;48.516;-2.768;2023-03-12T14:52:49;5.28;;;4.97;;
72813;SDS011;60945;48.516;-2.768;2023-03-12T14:55:16;5.47;;;5.10;;
72813;SDS011;60945;48.516;-2.768;2023-03-12T14:57:46;5.45;;;5.05;;
72813;SDS011;60945;48.516;-2.768;2023-03-12T15:00:22;5.53;;;5.18;;
72813;SDS011;60945;48.516;-2.768;2023-03-12T15:02:51;5.30;;;4.90;;
72813;SDS011;60945;48.516;-2.768;2023-03-12T15:05:19;5.50;;;5.10;;
72813;SDS011;60945;48.516;-2.768;2023-03-12T15:07:46;5.10;;;4.80;;
72813;SDS011;60945;48.516;-2.768;2023-03-12T15:12:45;4.57;;;4.27;;
72813;SDS011;60945;48.516;-2.768;2023-03-12T15:18:05;5.10;;;4.70;;
72813;SDS011;60945;48.516;-2.768;2023-03-12T15:20:40;5.05;;;4.75;;
72813;SDS011;60945;48.516;-2.768;2023-03-12T15:23:06;5.20;;;4.90;;
72813;SDS011;60945;48.516;-2.768;2023-03-12T15:25:33;4.65;;;4.35;;
72813;SDS011;60945;48.516;-2.768;2023-03-12T15:30:45;4.28;;;4.07;;
72813;SDS011;60945;48.516;-2.768;2023-03-12T15:33:11;4.00;;;3.80;;
72813;SDS011;60945;48.516;-2.768;2023-03-12T15:35:58;4.47;;;4.20;;
72813;SDS011;60945;48.516;-2.768;2023-03-12T15:38:30;4.00;;;3.80;;
72813;SDS011;60945;48.516;-2.768;2023-03-12T15:41:05;4.22;;;4.00;;
72813;SDS011;60945;48.516;-2.768;2023-03-12T15:43:33;5.10;;;4.80;;
72813;SDS011;60945;48.516;-2.768;2023-03-12T15:46:01;5.60;;;5.30;;
72813;SDS011;60945;48.516;-2.768;2023-03-12T15:48:30;5.30;;;5.00;;
72813;SDS011;60945;48.516;-2.768;2023-03-12T15:51:26;5.32;;;5.00;;
72813;SDS011;60945;48.516;-2.768;2023-03-12T15:56:51;5.10;;;4.80;;
72813;SDS011;60945;48.516;-2.768;2023-03-12T15:59:19;5.25;;;4.90;;
72813;SDS011;60945;48.516;-2.768;2023-03-12T16:01:51;5.70;;;5.40;;
72813;SDS011;60945;48.516;-2.768;2023-03-12T16:04:18;5.88;;;5.57;;
72813;SDS011;60945;48.516;-2.768;2023-03-12T16:06:44;6.10;;;5.80;;
72813;SDS011;60945;48.516;-2.768;2023-03-12T16:09:22;5.82;;;5.53;;
72813;SDS011;60945;48.516;-2.768;2023-03-12T16:11:52;6.22;;;5.93;;
72813;SDS011;60945;48.516;-2.768;2023-03-12T16:14:21;6.00;;;5.70;;
72813;SDS011;60945;48.516;-2.768;2023-03-12T16:16:58;6.50;;;6.10;;
72813;SDS011;60945;48.516;-2.768;2023-03-12T16:19:27;5.45;;;5.10;;
72813;SDS011;60945;48.516;-2.768;2023-03-12T16:21:54;5.72;;;5.32;;
72813;SDS011;60945;48.516;-2.768;2023-03-12T16:24:20;5.90;;;5.60;;
72813;SDS011;60945;48.516;-2.768;2023-03-12T16:26:52;5.55;;;5.25;;
72813;SDS011;60945;48.516;-2.768;2023-03-12T16:29:20;5.95;;;5.55;;
72813;SDS011;60945;48.516;-2.768;2023-03-12T16:31:53;5.68;;;5.38;;
72813;SDS011;60945;48.516;-2.768;2023-03-12T16:34:19;5.80;;;5.50;;
72813;SDS011;60945;48.516;-2.768;2023-03-12T16:36:45;5.68;;;5.38;;
72813;SDS011;60945;48.516;-2.768;2023-03-12T16:39:11;6.10;;;5.70;;
72813;SDS011;60945;48.516;-2.768;2023-03-12T16:41:36;8.65;;;8.20;;
72813;SDS011;60945;48.516;-2.768;2023-03-12T16:44:03;5.97;;;5.68;;
72813;SDS011;60945;48.516;-2.768;2023-03-12T16:46:31;5.90;;;5.50;;
72813;SDS011;60945;48.516;-2.768;2023-03-12T16:48:57;5.60;;;5.30;;